sensor_id;sensor_type;location;lat;lon;timestamp;P1;durP1;ratioP1;P2;durP2;ratioP2
39846;SDS011;25517;52.422;10.782;2023-08-21T00:01:06;9.20;;;5.60;;
39846;SDS011;25517;52.422;10.782;2023-08-21T00:03:31;11.88;;;6.55;;
39846;SDS011;25517;52.422;10.782;2023-08-21T00:05:56;7.60;;;6.25;;
39846;SDS011;25517;52.422;10.782;2023-08-21T00:08:22;7.00;;;5.45;;
39846;SDS011;25517;52.422;10.782;2023-08-21T00:10:48;7.70;;;5.72;;
39846;SDS011;25517;52.422;10.782;2023-08-21T00:13:14;9.10;;;5.93;;
39846;SDS011;25517;52.422;10.782;2023-08-21T00:15:39;10.35;;;6.72;;
39846;SDS011;25517;52.422;10.782;2023-08-21T00:18:05;7.93;;;5.70;;
39846;SDS011;25517;52.422;10.782;2023-08-21T00:20:30;6.45;;;5.75;;
39846;SDS011;25517;52.422;10.782;2023-08-21T00:22:56;7.50;;;6.20;;
39846;SDS011;25517;52.422;10.782;2023-08-21T00:25:22;7.10;;;5.97;;
39846;SDS011;25517;52.422;10.782;2023-08-21T00:27:47;11.13;;;6.53;;
39846;SDS011;25517;52.422;10.782;2023-08-21T00:30:13;9.60;;;6.63;;
39846;SDS011;25517;52.422;10.782;2023-08-21T00:32:40;8.95;;;7.15;;
39846;SDS011;25517;52.422;10.782;2023-08-21T00:35:05;10.15;;;6.15;;
39846;SDS011;25517;52.422;10.782;2023-08-21T00:37:31;9.52;;;7.43;;
39846;SDS011;25517;52.422;10.782;2023-08-21T00:39:57;7.55;;;6.80;;
39846;SDS011;25517;52.422;10.782;2023-08-21T00:42:22;8.57;;;7.15;;
39846;SDS011;25517;52.422;10.782;2023-08-21T00:44:48;8.18;;;6.22;;
39846;SDS011;25517;52.422;10.782;2023-08-21T00:47:14;7.53;;;6.35;;
39846;SDS011;25517;52.422;10.782;2023-08-21T00:49:39;8.55;;;6.78;;
39846;SDS011;25517;52.422;10.782;2023-08-21T00:52:06;10.07;;;6.65;;
39846;SDS011;25517;52.422;10.782;2023-08-21T00:54:34;8.30;;;7.00;;
39846;SDS011;25517;52.422;10.782;2023-08-21T00:57:00;9.75;;;6.88;;
39846;SDS011;25517;52.422;10.782;2023-08-21T00:59:26;9.07;;;7.05;;
39846;SDS011;25517;52.422;10.782;2023-08-21T01:01:51;9.60;;;7.43;;
39846;SDS011;25517;52.422;10.782;2023-08-21T01:04:17;7.38;;;6.68;;
39846;SDS011;25517;52.422;10.782;2023-08-21T01:06:43;7.97;;;7.28;;
39846;SDS011;25517;52.422;10.782;2023-08-21T01:09:10;8.90;;;7.25;;
39846;SDS011;25517;52.422;10.782;2023-08-21T01:11:46;12.05;;;8.07;;
39846;SDS011;25517;52.422;10.782;2023-08-21T01:17:02;7.55;;;6.82;;
39846;SDS011;25517;52.422;10.782;2023-08-21T01:19:42;8.18;;;7.35;;
39846;SDS011;25517;52.422;10.782;2023-08-21T01:22:09;10.63;;;7.82;;
39846;SDS011;25517;52.422;10.782;2023-08-21T01:24:35;8.93;;;7.25;;
39846;SDS011;25517;52.422;10.782;2023-08-21T01:27:00;7.68;;;6.97;;
39846;SDS011;25517;52.422;10.782;2023-08-21T01:29:26;8.98;;;7.10;;
39846;SDS011;25517;52.422;10.782;2023-08-21T01:31:55;8.18;;;7.35;;
39846;SDS011;25517;52.422;10.782;2023-08-21T01:34:32;9.95;;;8.40;;
39846;SDS011;25517;52.422;10.782;2023-08-21T01:36:59;11.80;;;8.30;;
39846;SDS011;25517;52.422;10.782;2023-08-21T01:39:26;8.43;;;7.57;;
39846;SDS011;25517;52.422;10.782;2023-08-21T01:41:52;7.93;;;7.13;;
39846;SDS011;25517;52.422;10.782;2023-08-21T01:44:18;11.52;;;8.50;;
39846;SDS011;25517;52.422;10.782;2023-08-21T01:46:43;8.68;;;7.78;;
39846;SDS011;25517;52.422;10.782;2023-08-21T01:49:09;8.75;;;7.95;;
39846;SDS011;25517;52.422;10.782;2023-08-21T01:51:34;8.30;;;7.50;;
39846;SDS011;25517;52.422;10.782;2023-08-21T01:54:00;9.38;;;8.38;;
39846;SDS011;25517;52.422;10.782;2023-08-21T01:56:25;12.23;;;8.00;;
39846;SDS011;25517;52.422;10.782;2023-08-21T01:58:51;13.98;;;8.77;;
39846;SDS011;25517;52.422;10.782;2023-08-21T02:01:16;16.73;;;10.32;;
39846;SDS011;25517;52.422;10.782;2023-08-21T02:03:43;10.23;;;8.85;;
39846;SDS011;25517;52.422;10.782;2023-08-21T02:06:09;10.85;;;8.70;;
39846;SDS011;25517;52.422;10.782;2023-08-21T02:08:35;10.98;;;8.73;;
39846;SDS011;25517;52.422;10.782;2023-08-21T02:11:00;9.73;;;8.70;;
39846;SDS011;25517;52.422;10.782;2023-08-21T02:13:26;11.18;;;7.93;;
39846;SDS011;25517;52.422;10.782;2023-08-21T02:15:52;12.23;;;8.05;;
39846;SDS011;25517;52.422;10.782;2023-08-21T02:18:17;11.27;;;8.60;;
39846;SDS011;25517;52.422;10.782;2023-08-21T02:20:43;9.48;;;8.48;;
39846;SDS011;25517;52.422;10.782;2023-08-21T02:23:09;10.80;;;8.63;;
39846;SDS011;25517;52.422;10.782;2023-08-21T02:25:34;14.70;;;9.68;;
39846;SDS011;25517;52.422;10.782;2023-08-21T02:28:00;12.77;;;9.95;;
39846;SDS011;25517;52.422;10.782;2023-08-21T02:30:27;12.07;;;9.55;;
39846;SDS011;25517;52.422;10.782;2023-08-21T02:32:53;9.82;;;8.52;;
39846;SDS011;25517;52.422;10.782;2023-08-21T02:35:19;12.50;;;8.50;;
39846;SDS011;25517;52.422;10.782;2023-08-21T02:37:45;12.65;;;9.98;;
39846;SDS011;25517;52.422;10.782;2023-08-21T02:40:11;11.43;;;8.40;;
39846;SDS011;25517;52.422;10.782;2023-08-21T02:42:36;11.88;;;8.20;;
39846;SDS011;25517;52.422;10.782;2023-08-21T02:45:02;12.15;;;8.15;;
39846;SDS011;25517;52.422;10.782;2023-08-21T02:47:34;10.23;;;9.07;;
39846;SDS011;25517;52.422;10.782;2023-08-21T02:50:06;11.32;;;8.77;;
39846;SDS011;25517;52.422;10.782;2023-08-21T02:52:32;12.50;;;8.82;;
39846;SDS011;25517;52.422;10.782;2023-08-21T02:54:58;8.77;;;7.85;;
39846;SDS011;25517;52.422;10.782;2023-08-21T02:57:24;8.73;;;7.72;;
39846;SDS011;25517;52.422;10.782;2023-08-21T02:59:50;10.05;;;8.35;;
39846;SDS011;25517;52.422;10.782;2023-08-21T03:02:16;9.82;;;7.93;;
39846;SDS011;25517;52.422;10.782;2023-08-21T03:04:42;8.93;;;8.02;;
39846;SDS011;25517;52.422;10.782;2023-08-21T03:07:08;8.48;;;7.40;;
39846;SDS011;25517;52.422;10.782;2023-08-21T03:09:33;8.27;;;7.47;;
39846;SDS011;25517;52.422;10.782;2023-08-21T03:11:59;9.68;;;8.23;;
39846;SDS011;25517;52.422;10.782;2023-08-21T03:14:26;9.80;;;7.97;;
39846;SDS011;25517;52.422;10.782;2023-08-21T03:16:51;9.45;;;8.00;;
39846;SDS011;25517;52.422;10.782;2023-08-21T03:19:17;9.10;;;7.82;;
39846;SDS011;25517;52.422;10.782;2023-08-21T03:21:43;9.40;;;8.43;;
39846;SDS011;25517;52.422;10.782;2023-08-21T03:24:08;10.20;;;8.90;;
39846;SDS011;25517;52.422;10.782;2023-08-21T03:26:34;10.82;;;9.73;;
39846;SDS011;25517;52.422;10.782;2023-08-21T03:29:00;11.50;;;9.27;;
39846;SDS011;25517;52.422;10.782;2023-08-21T03:31:26;14.27;;;9.82;;
39846;SDS011;25517;52.422;10.782;2023-08-21T03:33:51;10.90;;;9.55;;
39846;SDS011;25517;52.422;10.782;2023-08-21T03:36:17;10.52;;;9.18;;
39846;SDS011;25517;52.422;10.782;2023-08-21T03:38:44;9.60;;;8.55;;
39846;SDS011;25517;52.422;10.782;2023-08-21T03:41:09;11.05;;;8.90;;
39846;SDS011;25517;52.422;10.782;2023-08-21T03:43:35;12.00;;;9.00;;
39846;SDS011;25517;52.422;10.782;2023-08-21T03:46:00;8.70;;;7.90;;
39846;SDS011;25517;52.422;10.782;2023-08-21T03:48:26;9.20;;;8.30;;
39846;SDS011;25517;52.422;10.782;2023-08-21T03:50:51;10.35;;;8.88;;
39846;SDS011;25517;52.422;10.782;2023-08-21T03:53:17;11.98;;;9.30;;
39846;SDS011;25517;52.422;10.782;2023-08-21T03:55:43;9.43;;;8.52;;
39846;SDS011;25517;52.422;10.782;2023-08-21T03:58:08;10.02;;;8.93;;
39846;SDS011;25517;52.422;10.782;2023-08-21T04:00:34;10.57;;;8.60;;
39846;SDS011;25517;52.422;10.782;2023-08-21T04:02:59;10.10;;;8.95;;
39846;SDS011;25517;52.422;10.782;2023-08-21T04:05:25;11.52;;;9.10;;
39846;SDS011;25517;52.422;10.782;2023-08-21T04:07:50;11.02;;;9.02;;
39846;SDS011;25517;52.422;10.782;2023-08-21T04:10:16;13.15;;;8.73;;
39846;SDS011;25517;52.422;10.782;2023-08-21T04:12:42;10.50;;;8.57;;
39846;SDS011;25517;52.422;10.782;2023-08-21T04:15:07;9.07;;;8.18;;
39846;SDS011;25517;52.422;10.782;2023-08-21T04:17:34;9.75;;;8.32;;
39846;SDS011;25517;52.422;10.782;2023-08-21T04:19:59;10.75;;;9.57;;
39846;SDS011;25517;52.422;10.782;2023-08-21T04:22:25;9.20;;;8.20;;
39846;SDS011;25517;52.422;10.782;2023-08-21T04:24:50;11.93;;;9.32;;
39846;SDS011;25517;52.422;10.782;2023-08-21T04:27:16;9.65;;;8.48;;
39846;SDS011;25517;52.422;10.782;2023-08-21T04:29:41;11.68;;;10.10;;
39846;SDS011;25517;52.422;10.782;2023-08-21T04:32:07;9.95;;;9.05;;
39846;SDS011;25517;52.422;10.782;2023-08-21T04:34:33;12.60;;;10.25;;
39846;SDS011;25517;52.422;10.782;2023-08-21T04:36:58;10.55;;;9.50;;
39846;SDS011;25517;52.422;10.782;2023-08-21T04:39:24;10.15;;;9.20;;
39846;SDS011;25517;52.422;10.782;2023-08-21T04:41:50;10.93;;;9.10;;
39846;SDS011;25517;52.422;10.782;2023-08-21T04:44:16;12.77;;;9.77;;
39846;SDS011;25517;52.422;10.782;2023-08-21T04:46:42;12.35;;;9.85;;
39846;SDS011;25517;52.422;10.782;2023-08-21T04:49:07;13.85;;;10.52;;
39846;SDS011;25517;52.422;10.782;2023-08-21T04:51:33;14.38;;;10.43;;
39846;SDS011;25517;52.422;10.782;2023-08-21T04:53:59;12.82;;;11.43;;
39846;SDS011;25517;52.422;10.782;2023-08-21T04:56:25;12.82;;;11.20;;
39846;SDS011;25517;52.422;10.782;2023-08-21T04:58:51;11.95;;;10.07;;
39846;SDS011;25517;52.422;10.782;2023-08-21T05:01:17;13.95;;;11.30;;
39846;SDS011;25517;52.422;10.782;2023-08-21T05:03:43;16.45;;;11.48;;
39846;SDS011;25517;52.422;10.782;2023-08-21T05:06:08;11.95;;;10.40;;
39846;SDS011;25517;52.422;10.782;2023-08-21T05:08:34;15.50;;;12.18;;
39846;SDS011;25517;52.422;10.782;2023-08-21T05:11:00;15.43;;;12.50;;
39846;SDS011;25517;52.422;10.782;2023-08-21T05:13:26;13.38;;;11.98;;
39846;SDS011;25517;52.422;10.782;2023-08-21T05:15:52;17.40;;;13.15;;
39846;SDS011;25517;52.422;10.782;2023-08-21T05:18:21;16.90;;;13.30;;
39846;SDS011;25517;52.422;10.782;2023-08-21T05:20:48;14.90;;;12.23;;
39846;SDS011;25517;52.422;10.782;2023-08-21T05:23:14;15.82;;;11.35;;
39846;SDS011;25517;52.422;10.782;2023-08-21T05:25:39;17.17;;;12.15;;
39846;SDS011;25517;52.422;10.782;2023-08-21T05:28:05;13.55;;;11.48;;
39846;SDS011;25517;52.422;10.782;2023-08-21T05:30:32;12.68;;;10.82;;
39846;SDS011;25517;52.422;10.782;2023-08-21T05:32:58;11.85;;;10.68;;
39846;SDS011;25517;52.422;10.782;2023-08-21T05:35:23;18.40;;;13.20;;
39846;SDS011;25517;52.422;10.782;2023-08-21T05:37:50;16.83;;;13.18;;
39846;SDS011;25517;52.422;10.782;2023-08-21T05:40:15;18.35;;;12.80;;
39846;SDS011;25517;52.422;10.782;2023-08-21T05:42:41;18.63;;;12.93;;
39846;SDS011;25517;52.422;10.782;2023-08-21T05:45:06;17.15;;;11.82;;
39846;SDS011;25517;52.422;10.782;2023-08-21T05:47:32;14.88;;;12.88;;
39846;SDS011;25517;52.422;10.782;2023-08-21T05:49:58;12.82;;;11.50;;
39846;SDS011;25517;52.422;10.782;2023-08-21T05:52:23;15.63;;;12.80;;
39846;SDS011;25517;52.422;10.782;2023-08-21T05:54:48;18.83;;;13.32;;
39846;SDS011;25517;52.422;10.782;2023-08-21T05:57:14;13.50;;;11.48;;
39846;SDS011;25517;52.422;10.782;2023-08-21T05:59:46;16.25;;;12.63;;
39846;SDS011;25517;52.422;10.782;2023-08-21T06:02:12;16.60;;;12.35;;
39846;SDS011;25517;52.422;10.782;2023-08-21T06:04:39;14.82;;;12.05;;
39846;SDS011;25517;52.422;10.782;2023-08-21T06:07:05;19.67;;;13.70;;
39846;SDS011;25517;52.422;10.782;2023-08-21T06:09:31;13.82;;;11.35;;
39846;SDS011;25517;52.422;10.782;2023-08-21T06:11:58;14.63;;;11.68;;
39846;SDS011;25517;52.422;10.782;2023-08-21T06:14:27;13.00;;;11.70;;
39846;SDS011;25517;52.422;10.782;2023-08-21T06:16:56;14.75;;;11.75;;
39846;SDS011;25517;52.422;10.782;2023-08-21T06:19:24;12.80;;;10.07;;
39846;SDS011;25517;52.422;10.782;2023-08-21T06:21:49;13.38;;;11.07;;
39846;SDS011;25517;52.422;10.782;2023-08-21T06:24:15;13.27;;;10.23;;
39846;SDS011;25517;52.422;10.782;2023-08-21T06:26:41;11.38;;;9.93;;
39846;SDS011;25517;52.422;10.782;2023-08-21T06:29:06;11.98;;;9.32;;
39846;SDS011;25517;52.422;10.782;2023-08-21T06:31:32;9.60;;;8.70;;
39846;SDS011;25517;52.422;10.782;2023-08-21T06:33:58;15.20;;;9.90;;
39846;SDS011;25517;52.422;10.782;2023-08-21T06:36:23;10.52;;;8.45;;
39846;SDS011;25517;52.422;10.782;2023-08-21T06:38:49;14.20;;;9.38;;
39846;SDS011;25517;52.422;10.782;2023-08-21T06:41:14;9.40;;;8.50;;
39846;SDS011;25517;52.422;10.782;2023-08-21T06:43:40;11.07;;;9.05;;
39846;SDS011;25517;52.422;10.782;2023-08-21T06:46:06;12.32;;;9.20;;
39846;SDS011;25517;52.422;10.782;2023-08-21T06:48:32;13.88;;;9.07;;
39846;SDS011;25517;52.422;10.782;2023-08-21T06:50:57;11.02;;;8.02;;
39846;SDS011;25517;52.422;10.782;2023-08-21T06:53:23;8.80;;;7.93;;
39846;SDS011;25517;52.422;10.782;2023-08-21T06:55:49;8.70;;;6.68;;
39846;SDS011;25517;52.422;10.782;2023-08-21T06:58:14;7.80;;;7.07;;
39846;SDS011;25517;52.422;10.782;2023-08-21T07:00:40;8.38;;;6.20;;
39846;SDS011;25517;52.422;10.782;2023-08-21T07:03:05;9.68;;;6.93;;
39846;SDS011;25517;52.422;10.782;2023-08-21T07:05:34;7.55;;;6.82;;
39846;SDS011;25517;52.422;10.782;2023-08-21T07:07:59;7.50;;;5.07;;
39846;SDS011;25517;52.422;10.782;2023-08-21T07:10:25;10.05;;;6.05;;
39846;SDS011;25517;52.422;10.782;2023-08-21T07:12:52;7.80;;;6.10;;
39846;SDS011;25517;52.422;10.782;2023-08-21T07:15:18;9.95;;;5.32;;
39846;SDS011;25517;52.422;10.782;2023-08-21T07:17:44;7.05;;;5.28;;
39846;SDS011;25517;52.422;10.782;2023-08-21T07:20:09;8.05;;;5.68;;
39846;SDS011;25517;52.422;10.782;2023-08-21T07:22:35;9.43;;;5.93;;
39846;SDS011;25517;52.422;10.782;2023-08-21T07:25:01;8.73;;;5.40;;
39846;SDS011;25517;52.422;10.782;2023-08-21T07:27:29;13.65;;;5.80;;
39846;SDS011;25517;52.422;10.782;2023-08-21T07:29:55;7.20;;;5.30;;
39846;SDS011;25517;52.422;10.782;2023-08-21T07:32:21;8.65;;;5.90;;
39846;SDS011;25517;52.422;10.782;2023-08-21T07:34:46;7.50;;;5.20;;
39846;SDS011;25517;52.422;10.782;2023-08-21T07:37:13;15.45;;;11.15;;
39846;SDS011;25517;52.422;10.782;2023-08-21T07:39:38;9.98;;;7.63;;
39846;SDS011;25517;52.422;10.782;2023-08-21T07:42:04;8.13;;;6.10;;
39846;SDS011;25517;52.422;10.782;2023-08-21T07:44:29;9.05;;;5.22;;
39846;SDS011;25517;52.422;10.782;2023-08-21T07:46:55;7.40;;;5.07;;
39846;SDS011;25517;52.422;10.782;2023-08-21T07:49:20;9.25;;;4.32;;
39846;SDS011;25517;52.422;10.782;2023-08-21T07:51:46;8.68;;;3.65;;
39846;SDS011;25517;52.422;10.782;2023-08-21T07:54:11;8.23;;;3.42;;
39846;SDS011;25517;52.422;10.782;2023-08-21T07:56:37;8.00;;;3.17;;
39846;SDS011;25517;52.422;10.782;2023-08-21T07:59:04;7.95;;;3.17;;
39846;SDS011;25517;52.422;10.782;2023-08-21T08:01:30;10.32;;;3.45;;
39846;SDS011;25517;52.422;10.782;2023-08-21T08:03:55;5.30;;;2.72;;
39846;SDS011;25517;52.422;10.782;2023-08-21T08:06:21;10.80;;;3.25;;
39846;SDS011;25517;52.422;10.782;2023-08-21T08:08:46;8.80;;;3.42;;
39846;SDS011;25517;52.422;10.782;2023-08-21T08:11:12;8.25;;;2.80;;
39846;SDS011;25517;52.422;10.782;2023-08-21T08:13:37;4.78;;;3.10;;
39846;SDS011;25517;52.422;10.782;2023-08-21T08:16:03;5.03;;;2.92;;
39846;SDS011;25517;52.422;10.782;2023-08-21T08:18:28;6.95;;;2.60;;
39846;SDS011;25517;52.422;10.782;2023-08-21T08:20:54;3.88;;;2.72;;
39846;SDS011;25517;52.422;10.782;2023-08-21T08:23:19;6.57;;;2.92;;
39846;SDS011;25517;52.422;10.782;2023-08-21T08:25:45;8.13;;;2.50;;
39846;SDS011;25517;52.422;10.782;2023-08-21T08:28:12;5.03;;;2.00;;
39846;SDS011;25517;52.422;10.782;2023-08-21T08:30:37;4.38;;;1.90;;
39846;SDS011;25517;52.422;10.782;2023-08-21T08:33:03;7.22;;;2.00;;
39846;SDS011;25517;52.422;10.782;2023-08-21T08:35:28;8.02;;;2.20;;
39846;SDS011;25517;52.422;10.782;2023-08-21T08:37:54;4.15;;;2.05;;
39846;SDS011;25517;52.422;10.782;2023-08-21T08:40:20;4.78;;;2.40;;
39846;SDS011;25517;52.422;10.782;2023-08-21T08:42:45;3.58;;;2.13;;
39846;SDS011;25517;52.422;10.782;2023-08-21T08:45:12;4.50;;;2.50;;
39846;SDS011;25517;52.422;10.782;2023-08-21T08:47:39;6.07;;;2.88;;
39846;SDS011;25517;52.422;10.782;2023-08-21T08:50:06;7.57;;;2.20;;
39846;SDS011;25517;52.422;10.782;2023-08-21T08:52:38;5.30;;;2.13;;
39846;SDS011;25517;52.422;10.782;2023-08-21T08:55:04;4.70;;;2.40;;
39846;SDS011;25517;52.422;10.782;2023-08-21T08:57:32;4.65;;;2.00;;
39846;SDS011;25517;52.422;10.782;2023-08-21T08:59:58;2.88;;;1.67;;
39846;SDS011;25517;52.422;10.782;2023-08-21T09:02:24;4.15;;;2.05;;
39846;SDS011;25517;52.422;10.782;2023-08-21T09:04:53;5.80;;;2.30;;
39846;SDS011;25517;52.422;10.782;2023-08-21T09:07:19;3.38;;;1.95;;
39846;SDS011;25517;52.422;10.782;2023-08-21T09:09:46;4.63;;;2.20;;
39846;SDS011;25517;52.422;10.782;2023-08-21T09:12:14;4.25;;;1.88;;
39846;SDS011;25517;52.422;10.782;2023-08-21T09:14:40;4.70;;;2.20;;
39846;SDS011;25517;52.422;10.782;2023-08-21T09:17:06;4.85;;;1.85;;
39846;SDS011;25517;52.422;10.782;2023-08-21T09:19:32;4.78;;;2.03;;
39846;SDS011;25517;52.422;10.782;2023-08-21T09:21:58;8.65;;;2.65;;
39846;SDS011;25517;52.422;10.782;2023-08-21T09:24:24;5.22;;;2.13;;
39846;SDS011;25517;52.422;10.782;2023-08-21T09:26:50;5.45;;;1.75;;
39846;SDS011;25517;52.422;10.782;2023-08-21T09:29:15;2.95;;;1.80;;
39846;SDS011;25517;52.422;10.782;2023-08-21T09:31:42;3.97;;;1.67;;
39846;SDS011;25517;52.422;10.782;2023-08-21T09:34:10;3.70;;;1.83;;
39846;SDS011;25517;52.422;10.782;2023-08-21T09:36:36;7.43;;;1.95;;
39846;SDS011;25517;52.422;10.782;2023-08-21T09:39:04;8.13;;;2.00;;
39846;SDS011;25517;52.422;10.782;2023-08-21T09:41:31;3.47;;;1.60;;
39846;SDS011;25517;52.422;10.782;2023-08-21T09:44:00;5.18;;;1.67;;
39846;SDS011;25517;52.422;10.782;2023-08-21T09:46:26;4.60;;;1.77;;
39846;SDS011;25517;52.422;10.782;2023-08-21T09:48:53;3.75;;;1.95;;
39846;SDS011;25517;52.422;10.782;2023-08-21T09:51:19;4.65;;;2.25;;
39846;SDS011;25517;52.422;10.782;2023-08-21T09:53:45;4.00;;;2.08;;
39846;SDS011;25517;52.422;10.782;2023-08-21T09:56:13;7.32;;;1.85;;
39846;SDS011;25517;52.422;10.782;2023-08-21T09:58:39;4.10;;;1.63;;
39846;SDS011;25517;52.422;10.782;2023-08-21T10:01:05;9.15;;;1.98;;
39846;SDS011;25517;52.422;10.782;2023-08-21T10:03:39;4.32;;;1.92;;
39846;SDS011;25517;52.422;10.782;2023-08-21T10:06:06;5.63;;;2.15;;
39846;SDS011;25517;52.422;10.782;2023-08-21T10:08:36;8.73;;;2.30;;
39846;SDS011;25517;52.422;10.782;2023-08-21T10:11:05;5.57;;;2.17;;
39846;SDS011;25517;52.422;10.782;2023-08-21T10:13:33;5.18;;;1.60;;
39846;SDS011;25517;52.422;10.782;2023-08-21T10:16:00;2.90;;;1.70;;
39846;SDS011;25517;52.422;10.782;2023-08-21T10:18:30;5.00;;;1.95;;
39846;SDS011;25517;52.422;10.782;2023-08-21T10:21:14;4.57;;;1.60;;
39846;SDS011;25517;52.422;10.782;2023-08-21T10:23:41;4.80;;;1.80;;
39846;SDS011;25517;52.422;10.782;2023-08-21T10:26:07;3.60;;;1.70;;
39846;SDS011;25517;52.422;10.782;2023-08-21T10:28:41;4.68;;;1.70;;
39846;SDS011;25517;52.422;10.782;2023-08-21T10:34:03;6.40;;;2.08;;
39846;SDS011;25517;52.422;10.782;2023-08-21T10:41:39;3.80;;;1.52;;
39846;SDS011;25517;52.422;10.782;2023-08-21T10:44:06;8.63;;;2.08;;
39846;SDS011;25517;52.422;10.782;2023-08-21T10:46:49;6.18;;;2.05;;
39846;SDS011;25517;52.422;10.782;2023-08-21T10:49:15;7.72;;;2.28;;
39846;SDS011;25517;52.422;10.782;2023-08-21T10:51:41;5.60;;;2.38;;
39846;SDS011;25517;52.422;10.782;2023-08-21T10:54:12;5.53;;;2.25;;
39846;SDS011;25517;52.422;10.782;2023-08-21T10:56:38;6.78;;;2.05;;
39846;SDS011;25517;52.422;10.782;2023-08-21T10:59:04;6.65;;;2.72;;
39846;SDS011;25517;52.422;10.782;2023-08-21T11:01:43;6.13;;;2.10;;
39846;SDS011;25517;52.422;10.782;2023-08-21T11:04:09;5.20;;;1.83;;
39846;SDS011;25517;52.422;10.782;2023-08-21T11:06:36;4.15;;;1.98;;
39846;SDS011;25517;52.422;10.782;2023-08-21T11:09:02;5.65;;;2.28;;
39846;SDS011;25517;52.422;10.782;2023-08-21T11:11:28;6.50;;;2.10;;
39846;SDS011;25517;52.422;10.782;2023-08-21T11:13:54;5.43;;;2.00;;
39846;SDS011;25517;52.422;10.782;2023-08-21T11:16:19;4.55;;;2.03;;
39846;SDS011;25517;52.422;10.782;2023-08-21T11:18:45;4.85;;;1.60;;
39846;SDS011;25517;52.422;10.782;2023-08-21T11:21:11;3.85;;;1.92;;
39846;SDS011;25517;52.422;10.782;2023-08-21T11:23:40;8.35;;;2.47;;
39846;SDS011;25517;52.422;10.782;2023-08-21T11:26:09;5.80;;;1.77;;
39846;SDS011;25517;52.422;10.782;2023-08-21T11:28:36;8.40;;;2.00;;
39846;SDS011;25517;52.422;10.782;2023-08-21T11:31:02;9.57;;;2.30;;
39846;SDS011;25517;52.422;10.782;2023-08-21T11:33:29;6.03;;;2.17;;
39846;SDS011;25517;52.422;10.782;2023-08-21T11:35:56;6.60;;;2.25;;
39846;SDS011;25517;52.422;10.782;2023-08-21T11:38:22;5.53;;;1.60;;
39846;SDS011;25517;52.422;10.782;2023-08-21T11:46:03;9.35;;;2.05;;
39846;SDS011;25517;52.422;10.782;2023-08-21T11:48:30;3.97;;;1.38;;
39846;SDS011;25517;52.422;10.782;2023-08-21T11:50:56;4.85;;;1.75;;
39846;SDS011;25517;52.422;10.782;2023-08-21T11:53:31;7.47;;;1.75;;
39846;SDS011;25517;52.422;10.782;2023-08-21T11:56:01;5.93;;;1.90;;
39846;SDS011;25517;52.422;10.782;2023-08-21T11:58:28;6.57;;;1.63;;
39846;SDS011;25517;52.422;10.782;2023-08-21T12:00:54;5.53;;;1.38;;
39846;SDS011;25517;52.422;10.782;2023-08-21T12:03:28;8.25;;;1.40;;
39846;SDS011;25517;52.422;10.782;2023-08-21T12:05:54;4.20;;;1.30;;
39846;SDS011;25517;52.422;10.782;2023-08-21T12:08:20;5.05;;;1.60;;
39846;SDS011;25517;52.422;10.782;2023-08-21T12:10:49;4.82;;;2.05;;
39846;SDS011;25517;52.422;10.782;2023-08-21T12:13:17;2.53;;;1.30;;
39846;SDS011;25517;52.422;10.782;2023-08-21T12:15:42;4.47;;;1.48;;
39846;SDS011;25517;52.422;10.782;2023-08-21T12:18:08;5.47;;;1.50;;
39846;SDS011;25517;52.422;10.782;2023-08-21T12:20:34;8.30;;;3.30;;
39846;SDS011;25517;52.422;10.782;2023-08-21T12:22:59;5.80;;;2.03;;
39846;SDS011;25517;52.422;10.782;2023-08-21T12:25:25;4.22;;;2.15;;
39846;SDS011;25517;52.422;10.782;2023-08-21T12:27:50;5.43;;;2.70;;
39846;SDS011;25517;52.422;10.782;2023-08-21T12:30:16;4.45;;;1.90;;
39846;SDS011;25517;52.422;10.782;2023-08-21T12:32:41;6.20;;;2.67;;
39846;SDS011;25517;52.422;10.782;2023-08-21T12:35:07;7.82;;;2.47;;
39846;SDS011;25517;52.422;10.782;2023-08-21T12:37:36;5.57;;;2.08;;
39846;SDS011;25517;52.422;10.782;2023-08-21T12:40:02;8.30;;;2.08;;
39846;SDS011;25517;52.422;10.782;2023-08-21T12:42:27;5.45;;;1.75;;
39846;SDS011;25517;52.422;10.782;2023-08-21T12:44:53;4.70;;;1.75;;
39846;SDS011;25517;52.422;10.782;2023-08-21T12:47:18;3.58;;;1.38;;
39846;SDS011;25517;52.422;10.782;2023-08-21T12:49:44;4.82;;;1.55;;
39846;SDS011;25517;52.422;10.782;2023-08-21T12:52:09;4.32;;;1.60;;
39846;SDS011;25517;52.422;10.782;2023-08-21T12:54:37;5.10;;;1.60;;
39846;SDS011;25517;52.422;10.782;2023-08-21T12:57:03;4.80;;;1.30;;
39846;SDS011;25517;52.422;10.782;2023-08-21T12:59:29;3.72;;;1.55;;
39846;SDS011;25517;52.422;10.782;2023-08-21T13:01:55;3.80;;;1.50;;
39846;SDS011;25517;52.422;10.782;2023-08-21T13:04:20;4.95;;;1.83;;
39846;SDS011;25517;52.422;10.782;2023-08-21T13:06:46;5.25;;;1.48;;
39846;SDS011;25517;52.422;10.782;2023-08-21T13:09:11;6.78;;;1.88;;
39846;SDS011;25517;52.422;10.782;2023-08-21T13:11:37;3.70;;;1.55;;
39846;SDS011;25517;52.422;10.782;2023-08-21T13:14:02;2.63;;;1.02;;
39846;SDS011;25517;52.422;10.782;2023-08-21T13:16:28;4.22;;;1.73;;
39846;SDS011;25517;52.422;10.782;2023-08-21T13:18:54;4.07;;;1.38;;
39846;SDS011;25517;52.422;10.782;2023-08-21T13:21:19;4.82;;;1.55;;
39846;SDS011;25517;52.422;10.782;2023-08-21T13:23:44;5.22;;;1.50;;
39846;SDS011;25517;52.422;10.782;2023-08-21T13:26:10;4.15;;;1.58;;
39846;SDS011;25517;52.422;10.782;2023-08-21T13:28:35;4.28;;;1.40;;
39846;SDS011;25517;52.422;10.782;2023-08-21T13:31:01;4.00;;;1.45;;
39846;SDS011;25517;52.422;10.782;2023-08-21T13:33:28;3.63;;;1.60;;
39846;SDS011;25517;52.422;10.782;2023-08-21T13:35:53;6.03;;;1.80;;
39846;SDS011;25517;52.422;10.782;2023-08-21T13:38:19;6.28;;;1.88;;
39846;SDS011;25517;52.422;10.782;2023-08-21T13:40:44;5.93;;;1.42;;
39846;SDS011;25517;52.422;10.782;2023-08-21T13:43:10;5.85;;;1.63;;
39846;SDS011;25517;52.422;10.782;2023-08-21T13:45:37;5.88;;;1.50;;
39846;SDS011;25517;52.422;10.782;2023-08-21T13:48:03;2.88;;;1.27;;
39846;SDS011;25517;52.422;10.782;2023-08-21T13:50:29;3.58;;;1.50;;
39846;SDS011;25517;52.422;10.782;2023-08-21T13:52:54;4.25;;;1.33;;
39846;SDS011;25517;52.422;10.782;2023-08-21T13:55:21;4.65;;;1.38;;
39846;SDS011;25517;52.422;10.782;2023-08-21T13:57:47;3.63;;;1.80;;
39846;SDS011;25517;52.422;10.782;2023-08-21T14:00:12;3.00;;;1.40;;
39846;SDS011;25517;52.422;10.782;2023-08-21T14:02:39;1.48;;;0.98;;
39846;SDS011;25517;52.422;10.782;2023-08-21T14:05:06;4.40;;;1.60;;
39846;SDS011;25517;52.422;10.782;2023-08-21T14:07:32;3.08;;;1.50;;
39846;SDS011;25517;52.422;10.782;2023-08-21T14:09:59;3.42;;;1.75;;
39846;SDS011;25517;52.422;10.782;2023-08-21T14:12:25;4.70;;;1.63;;
39846;SDS011;25517;52.422;10.782;2023-08-21T14:14:52;4.38;;;1.85;;
39846;SDS011;25517;52.422;10.782;2023-08-21T14:17:18;4.32;;;1.80;;
39846;SDS011;25517;52.422;10.782;2023-08-21T14:19:43;2.88;;;1.13;;
39846;SDS011;25517;52.422;10.782;2023-08-21T14:22:09;5.22;;;1.83;;
39846;SDS011;25517;52.422;10.782;2023-08-21T14:24:34;5.00;;;1.60;;
39846;SDS011;25517;52.422;10.782;2023-08-21T14:27:00;4.78;;;1.85;;
39846;SDS011;25517;52.422;10.782;2023-08-21T14:29:25;6.20;;;1.77;;
39846;SDS011;25517;52.422;10.782;2023-08-21T14:31:51;5.47;;;1.45;;
39846;SDS011;25517;52.422;10.782;2023-08-21T14:34:18;2.33;;;1.20;;
39846;SDS011;25517;52.422;10.782;2023-08-21T14:36:49;5.05;;;1.40;;
39846;SDS011;25517;52.422;10.782;2023-08-21T14:39:15;2.75;;;1.58;;